Etna, CA (96027)

9:03 AM PDT on October 23, 2014 (GMT -0700)
KCAETNA4 | Change Station
CLOSE
Current Station
Personal Weather Station
Location: Etna, CA
Elevation: 2888 ft
Nearby Weather Stations

Elev 2888 ft 41.46 °N, 122.89 °W | Updated 10 seconds ago

Rain
Rain
53.1 °F
Feels Like 53.1 °F
N
5.0
Wind Variable Wind from SSW
Gusts 7.0 mph

Today
High -- | Low -- °F
--% Chance of Precip.
Yesterday
High -- | Low -- °F
Precip. -- in
7:32 AM 6:18 PM
Waning Crescent, 0% visible
Pressure 30.11 in
Visibility 7.0 miles
Clouds Scattered Clouds 3400 ft
Mostly Cloudy 4100 ft
Overcast 4900 ft
Dew Point 50 °F
Humidity 89%
Rainfall 0.74 in
Snow Depth Not available.
UV 0.0 out of 12
Pollen .40 out of 12
Air Quality Not available.
Flu Activity Sporadic
METAR KMHS 231556Z AUTO 10003KT 7SM -RA SCT034 BKN041 OVC049 09/07 A3007 RMK AO2 SLP194 P0006 T00890072

More Conditions Fewer Conditions

Pressure 30.11 in
Visibility 7.0 miles
Clouds Scattered Clouds 3400 ft
Mostly Cloudy 4100 ft
Overcast 4900 ft
Dew Point 50 °F
Humidity 89%
Rainfall 0.74 in
Snow Depth Not available.
UV 0.0 out of 12
Pollen .40 out of 12
Air Quality Not available.
Flu Activity Sporadic
METAR KMHS 231556Z AUTO 10003KT 7SM -RA SCT034 BKN041 OVC049 09/07 A3007 RMK AO2 SLP194 P0006 T00890072

More Conditions Fewer Conditions

10-Day Weather Forecast

Almanac

Astronomy

Oct. 23, 2014 Rise Set
Actual Time 7:32 AM PDT 6:18 PM PDT
Civil Twilight 7:04 AM PDT 6:46 PM PDT
Nautical Twilight 6:32 AM PDT 7:19 PM PDT
Astronomical Twilight 6:00 AM PDT 7:51 PM PDT
Moon 7:17 AM PDT 6:23 PM PDT
Length of Visible Light 11h 42m
Length of Day
10h 45m
Tomorrow will be 2m 35s shorter.
Waning Crescent, 0% of the Moon is Illuminated
Today
Waning Crescent
Oct 23
New
Oct 30
First Quarter
Nov 6
Full
Nov 14
Last Quarter

Today's Extremes

State Highs State Lows

Community

WunderPhotos

Upload Photos

1,764,293 photos uploaded!

WunderBlogs® & News

By Dr. Jeff Masters
Director of Meteorology, Weather Underground
By Kari Strenfel
Meteorologist, Weather Underground
By Christopher C. Burt
Weather Historian, Weather Underground
October 23, 2014
October 23, 2014
October 23, 2014

Nearby

Snow Depth

Station Depth Elevation
Adin Mountain 0 in 6200 ft
Crowder Flat 0 in 5100 ft
Independence Lake 0 in 8450 ft
Independence Camp 0 in 7000 ft
CSS Lab 1 in 6900 ft

Earthquake Activity

City Distance Mag. Time & Date
No recent earthquake activity has been reported nearby.
Minimum magnitude displayed is 2.5.

Coastal Water Temperatures

Place Temperature
No Stations Reporting

Nearby Weather Stations